LTCG Airport Information

Runway Information
Runway 11 Length 8661 ft width 148 ft
Elevation 104 ft Threshold 0 ft Heading 112
Runway 29 Length 8661 ft Width 148 ft
Elevation 95 ft Threshold 0 ft Heading 292
Airport Frequencies
Type APP Name APP Frequency 120.1 MHZ
Type GND Name GND Frequency 121.9 MHZ
Type TWR Name TWR Frequency 120.1 MHZ
Airport Navaids
Type NDB Name Trabzon Frequency 392 KHZ
Type VOR-DME Name Trabzon Frequency 114900 KHZ
Type NDB Name Trabzon Frequency 371 KHZ
Airport Weather Information & NOTAM
ADDS - METARS form results

(2012 UTC 23 April 2019)
Data provider http://aviationweather.gov/metar/data/
 
METAR text: LTCG 231950Z VRB01KT 9999 FEW100 10/05 Q1029 NOSIG RMK RWY29 VRB01KT
Conditions at: LTCG (TRABZON , TR) observed 1950 UTC 23 April 2019
Temperature: 10.0°C (50°F)
Dewpoint: 5.0°C (41°F) [RH = 71%]
Pressure (altimeter): 30.38 inches Hg (1029.0 mb)
Winds: variable direction winds at 1 MPH (1 knots; 0.5 m/s)
Visibility: 6 or more miles (10+ km)
Ceiling: at least 12,000 feet AGL
Clouds: few clouds at 10000 feet AGL
Weather: no significant weather observed at this time

METAR text: LTCG 231920Z VRB02G12KT 9999 FEW100 10/05 Q1029 NOSIG RMK RWY29 VRB02KT
Conditions at: LTCG (TRABZON , TR) observed 1920 UTC 23 April 2019
Temperature: 10.0°C (50°F)
Dewpoint: 5.0°C (41°F) [RH = 71%]
Pressure (altimeter): 30.38 inches Hg (1029.0 mb)
Winds: variable direction winds at 2 MPH (2 knots; 1.0 m/s)
gusting to 14 MPH (12 knots; 6.2 m/s)
Visibility: 6 or more miles (10+ km)
Ceiling: at least 12,000 feet AGL
Clouds: few clouds at 10000 feet AGL
Weather: no significant weather observed at this time

Forecast for: LTCG (TRABZON , TR)
Text: TAF LTCG 231640Z 2318/2418 VRB02KT 9999 SCT100
Forecast period: 1800 UTC 23 April 2019 to 1800 UTC 24 April 2019
Forecast type: FROM: standard forecast or significant change
Winds: variable direction winds at 2 MPH (2 knots; 1.0 m/s)
Visibility: 6 or more miles 10+ km)
Ceiling: at least 12,000 feet AGL
Clouds: scattered clouds at 10000 feet AGL
Weather: no significant weather forecast for this period
Text: BECMG 2318/2321 CAVOK
Forecast period: 1800 UTC 23 April 2019 to 1800 UTC 24 April 2019
Forecast type: BECOMING: Conditions expected to become as follows by 2100 UTC 23 April 2019
Winds: variable direction winds at 2 MPH (2 knots; 1.0 m/s)
Visibility: 6 or more miles 10+ km)
Ceiling: unknown
Clouds: missing
Weather: NSW  (no significant weather)